EW0079 El Bonillo ES current weather conditions

sailwx.info

Wind from 260 at 0 knots gusting 2

Air temperature 5.6° C
Dewpoint 2.7° C

Last reported at 2020-Jan-17 19:00 UTC.
Time now 2020-Jan-17 19:28 UTC

Location: N 38°57' W 002°33'.
View on Google Maps.

See reports from other nearby stations

  
Tides and Currents Weather Stations Pressure Air Temp Water Temp Dewpoint Dewpoint Depression Visibility Wind Speed Wind Dir Waves Ship Positions
date/time (UTC)wind fromknots sea level pressurealtimeterstation pressurevisibilityair tempwater tempwave heightnotes
2020-Jan-17 19:00 260 0 gusting 2 5.6
2020-Jan-17 18:45 247 0 gusting 1 5.6
2020-Jan-17 18:30 266 0 gusting 2 5.6
2020-Jan-17 18:15 268 0 gusting 2 6.1
2020-Jan-17 18:00 276 1 gusting 4 6.1
2020-Jan-17 17:45 271 1 gusting 3 6.1
2020-Jan-17 17:30 274 3 gusting 5 6.7
2020-Jan-17 17:15 270 4 gusting 7 7.8
2020-Jan-17 17:00 266 5 gusting 8 8.3
2020-Jan-17 16:45 267 6 gusting 10 8.3
2020-Jan-17 16:30 266 6 gusting 10 8.9
2020-Jan-17 16:15 269 6 gusting 12 8.9
2020-Jan-17 16:00 266 6 gusting 14 8.9
2020-Jan-17 15:45 265 7 gusting 12 8.9
2020-Jan-17 15:30 259 8 gusting 15 8.9
2020-Jan-17 15:15 262 9 gusting 17 9.4
2020-Jan-17 15:00 259 9 gusting 15 9.4
2020-Jan-17 14:45 263 9 gusting 16 9.4
2020-Jan-17 14:30 263 10 gusting 19 9.4
2020-Jan-17 14:15 263 11 gusting 18 9.4
2020-Jan-17 13:45 259 12 gusting 19 8.9
2020-Jan-17 13:30 259 12 gusting 19 9.4
2020-Jan-17 13:15 265 10 gusting 16 8.9
2020-Jan-17 13:00 256 10 gusting 19 8.9
2020-Jan-17 12:45 261 10 gusting 15 8.3
2020-Jan-17 12:30 260 10 gusting 17 7.8
2020-Jan-17 12:15 253 11 gusting 17 8.3
2020-Jan-17 12:00 251 10 gusting 16 7.8
2020-Jan-17 11:45 250 9 gusting 18 7.8
2020-Jan-17 11:30 247 10 gusting 13 7.8
2020-Jan-17 11:15 248 9 gusting 18 7.2
2020-Jan-17 11:00 254 10 gusting 17 7.2
2020-Jan-17 10:45 243 10 gusting 19 7.2
2020-Jan-17 10:30 241 9 gusting 16 7.2
2020-Jan-17 10:15 240 7 gusting 13 7.2
2020-Jan-17 10:00 238 8 gusting 13 6.7
2020-Jan-17 09:45 239 7 gusting 13 6.7
2020-Jan-17 09:30 237 6 gusting 11 6.1
2020-Jan-17 09:15 229 5 gusting 8 5.6
2020-Jan-17 09:00 238 6 gusting 12 5.6
2020-Jan-17 08:45 239 5 gusting 10 5.6
2020-Jan-17 08:30 239 5 gusting 10 5.0
2020-Jan-17 08:15 238 3 gusting 8 5.0
2020-Jan-17 08:00 238 3 gusting 8 5.0
2020-Jan-17 07:45 235 5 gusting 7 5.6
2020-Jan-17 07:30 241 5 gusting 11 5.6
2020-Jan-17 07:15 247 5 gusting 9 5.6
2020-Jan-17 07:00 244 3 gusting 7 5.0
2020-Jan-17 06:45 240 2 gusting 6 5.0
2020-Jan-17 06:30 234 2 gusting 6 5.0
2020-Jan-17 06:15 240 5 gusting 10 5.0
2020-Jan-17 06:00 237 3 gusting 7 5.0
2020-Jan-17 05:45 239 2 gusting 6 4.4
2020-Jan-17 05:30 241 1 gusting 5 3.9
2020-Jan-17 05:15 232 1 gusting 4 3.3
2020-Jan-17 04:45 238 2 gusting 5 3.3
2020-Jan-17 04:30 238 3 gusting 6 3.3
2020-Jan-17 04:15 219 5 gusting 11 3.3
2020-Jan-17 04:00 218 3 gusting 9 3.3
2020-Jan-17 03:45 218 3 gusting 8 2.8
2020-Jan-17 03:30 220 3 gusting 5 2.8
2020-Jan-17 03:15 216 4 gusting 6 2.8
2020-Jan-17 03:00 215 2 gusting 8 2.2
2020-Jan-17 02:45 220 1 gusting 4 2.2
2020-Jan-17 02:30 248 1 gusting 4 2.2
2020-Jan-17 02:15 236 0 gusting 1 2.2
2020-Jan-17 02:00 232 1 gusting 3 2.2
2020-Jan-17 01:45 232 1 gusting 7 2.2
2020-Jan-17 01:30 231 3 gusting 5 2.8
2020-Jan-17 01:15 222 5 gusting 8 2.8
2020-Jan-17 01:00 218 5 gusting 11 2.8
2020-Jan-17 00:45 218 2 gusting 6 2.2
2020-Jan-17 00:30 212 1 gusting 4 2.8
2020-Jan-17 00:15 226 0 gusting 3 2.8
2020-Jan-17 00:00 216 1 gusting 5 2.8
2020-Jan-16 23:45 219 2 gusting 6 3.3
2020-Jan-16 23:30 214 2 gusting 6 3.3
2020-Jan-16 23:15 210 1 gusting 6 3.3
2020-Jan-16 23:00 211 0 gusting 3 3.9
2020-Jan-16 22:45 197 0 gusting 2 4.4
2020-Jan-16 22:30 213 0 gusting 5 4.4
2020-Jan-16 22:15 197 0 gusting 2 4.4
2020-Jan-16 22:00 186 0 gusting 3 4.4
2020-Jan-16 21:45 182 0 gusting 2 4.4
2020-Jan-16 21:30 154 0 gusting 2 4.4
2020-Jan-16 21:15 186 1 gusting 4 5.0
2020-Jan-16 21:00 186 0 gusting 1 4.4
2020-Jan-16 20:45 179 5.0
2020-Jan-16 20:30 191 0 gusting 3 5.0
2020-Jan-16 20:15 201 0 gusting 2 5.0
2020-Jan-16 20:00 208 0 gusting 5 5.6
2020-Jan-16 19:45 194 5.6
2020-Jan-16 19:30 217 5.6
2020-Jan-16 19:15 191 0 gusting 1 5.6
2020-Jan-16 19:00 143 0 gusting 2 6.7
2020-Jan-16 18:45 174 0 gusting 2 6.7
2020-Jan-16 18:30 196 6.7
2020-Jan-16 18:15 211 7.2
2020-Jan-16 18:00 214 0 gusting 1 7.8
2020-Jan-16 17:45 222 0 gusting 1 7.8
2020-Jan-16 17:30 213 1 gusting 3 8.3
2020-Jan-16 17:15 211 1 gusting 3 8.9
2020-Jan-16 17:00 216 3 gusting 5 10.0
2020-Jan-16 16:45 219 3 gusting 7 11.1
2020-Jan-16 16:30 218 4 gusting 8 11.1
2020-Jan-16 16:15 221 4 gusting 8 11.7
2020-Jan-16 16:00 225 3 gusting 8 11.7
2020-Jan-16 15:45 250 2 gusting 4 11.1
2020-Jan-16 15:30 238 4 gusting 8 11.1
2020-Jan-16 15:15 242 3 gusting 6 11.7
2020-Jan-16 15:00 238 4 gusting 8 11.1
2020-Jan-16 14:45 234 4 gusting 8 11.7
2020-Jan-16 14:30 227 5 gusting 8 12.2
2020-Jan-16 14:15 243 4 gusting 10 12.2
2020-Jan-16 14:00 235 4 gusting 7 12.2
2020-Jan-16 13:45 238 5 gusting 11 11.7
2020-Jan-16 13:30 235 6 gusting 10 11.7
2020-Jan-16 13:15 230 5 gusting 10 12.2
2020-Jan-16 13:00 240 5 gusting 11 11.7
2020-Jan-16 12:45 231 4 gusting 9 11.7
2020-Jan-16 12:30 232 4 gusting 10 11.7
2020-Jan-16 12:15 237 3 gusting 9 11.7
2020-Jan-16 12:00 218 3 gusting 6 11.7
2020-Jan-16 11:45 227 3 gusting 6 11.1
2020-Jan-16 11:30 203 1 gusting 6 11.1
2020-Jan-16 11:15 159 1 gusting 5 11.1
2020-Jan-16 11:00 142 1 gusting 4 10.6
2020-Jan-16 10:45 156 1 gusting 4 10.0
2020-Jan-16 10:30 183 0 gusting 3 10.0
2020-Jan-16 10:15 179 1 gusting 3 9.4
2020-Jan-16 10:00 177 0 gusting 2 9.4
2020-Jan-16 09:45 143 0 gusting 2 8.9
2020-Jan-16 09:30 184 8.9
2020-Jan-16 09:15 193 8.9
2020-Jan-16 09:00 7.8
2020-Jan-16 08:45 7.2
2020-Jan-16 08:30 6.7
2020-Jan-16 08:15 6.1
2020-Jan-16 08:00 5.6
2020-Jan-16 07:45 5.0
2020-Jan-16 07:30 4.4
2020-Jan-16 07:15 4.4
2020-Jan-16 07:00 125 4.4
2020-Jan-16 06:45 119 4.4
2020-Jan-16 06:30 4.4
2020-Jan-16 06:15 4.4
2020-Jan-16 06:00 086 4.4
2020-Jan-16 05:45 077 4.4
2020-Jan-16 05:30 4.4
2020-Jan-16 05:15 093 4.4
2020-Jan-16 04:45 4.4
2020-Jan-16 04:30 4.4
2020-Jan-16 04:15 4.4
2020-Jan-16 04:00 4.4
2020-Jan-16 03:45 3.9
2020-Jan-16 03:30 3.9
2020-Jan-16 03:15 4.4
2020-Jan-16 03:00 4.4
2020-Jan-16 02:45 211 4.4
2020-Jan-16 02:30 4.4
2020-Jan-16 02:15 4.4
2020-Jan-16 02:00 150 4.4
2020-Jan-16 01:45 186 4.4
2020-Jan-16 01:30 182 4.4
2020-Jan-16 01:15 201 4.4
2020-Jan-16 01:00 117 4.4
2020-Jan-16 00:45 4.4
2020-Jan-16 00:30 105 4.4
2020-Jan-16 00:15 4.4
2020-Jan-16 00:00 214 5.0
2020-Jan-15 23:45 154 5.0
2020-Jan-15 23:30 205 5.0
2020-Jan-15 23:15 5.0
2020-Jan-15 23:00 5.0
2020-Jan-15 22:45 4.4
2020-Jan-15 22:30 145 4.4
2020-Jan-15 22:15 202 5.0
2020-Jan-15 22:00 4.4
2020-Jan-15 21:45 213 0 gusting 3 4.4
2020-Jan-15 21:30 4.4
2020-Jan-15 21:15 171 4.4
2020-Jan-15 21:00 213 4.4
2020-Jan-15 20:45 190 4.4
2020-Jan-15 20:30 136 0 gusting 2 4.4
2020-Jan-15 20:15 186 0 gusting 5 5.0
2020-Jan-15 20:00 216 0 gusting 1 5.6
2020-Jan-15 19:45 239 1 gusting 3 5.6
2020-Jan-15 19:30 236 0 gusting 3 5.6
2020-Jan-15 19:15 216 5.6
2020-Jan-15 19:00 197 6.1